Time;durP1;ratioP1;P1;durP2;ratioP2;P2;SDS_P1;SDS_P2;PMS_P1;PMS_P2;Temp;Humidity;BMP_temperature;BMP_pressure;BME280_temperature;BME280_humidity;BME280_pressure;Samples;Min_cycle;Max_cycle;Signal;HPM_P1;HPM_P2
2022/11/15 04:58:41;;;;;;;22.42;14.20;;;;;;;9.52;95.58;100849.25;5606382;31;79656;-55
2022/11/15 05:02:02;;;;;;;20.62;15.85;;;;;;;9.52;95.58;100849.25;5584132;32;35226;-55
2022/11/15 05:05:24;;;;;;;19.58;14.32;;;;;;;9.12;91.76;100847.97;5583745;32;34089;-55
2022/11/15 05:08:44;;;;;;;18.77;15.18;;;;;;;8.99;87.12;100851.13;5583780;32;34650;-55
2022/11/15 05:12:05;;;;;;;19.75;15.35;;;;;;;8.99;100.00;100861.00;5583584;31;35387;-55
2022/11/15 05:15:26;;;;;;;20.95;15.68;;;;;;;8.89;87.02;100859.88;5583864;32;34445;-55
2022/11/15 05:18:46;;;;;;;21.65;15.27;;;;;;;8.86;87.31;100865.72;5583229;31;34391;-55
2022/11/15 05:22:07;;;;;;;19.58;14.95;;;;;;;8.91;82.78;100870.31;5583664;31;35450;-56
2022/11/15 05:25:27;;;;;;;22.55;16.50;;;;;;;8.91;86.10;100870.31;5583620;32;35256;-55
2022/11/15 05:28:54;;;;;;;22.42;16.35;;;;;;;8.83;84.42;100873.47;5583600;31;34432;-55
2022/11/15 05:32:16;;;;;;;20.08;15.70;;;;;;;9.03;92.53;100868.25;5583493;32;35471;-56
2022/11/15 05:35:42;;;;;;;21.27;15.93;;;;;;;9.34;100.00;100871.94;5583583;32;34498;-55
2022/11/15 05:39:04;;;;;;;22.63;16.73;;;;;;;9.39;95.22;100865.78;5583282;31;35325;-55
2022/11/15 05:42:26;;;;;;;19.75;15.23;;;;;;;9.70;100.00;100873.94;5583199;31;35367;-55
2022/11/15 05:45:47;;;;;;;21.25;16.40;;;;;;;9.69;100.00;100858.97;5579937;32;33920;-55
2022/11/15 05:49:12;;;;;;;22.48;17.17;;;;;;;9.95;100.00;100855.28;5583482;31;34422;-56
2022/11/15 05:52:36;;;;;;;21.87;16.80;;;;;;;9.76;83.44;100851.47;5568177;32;34550;-55
2022/11/15 05:55:57;;;;;;;23.38;16.45;;;;;;;9.45;83.69;100851.38;5580948;31;34550;-57
2022/11/15 05:59:18;;;;;;;23.42;17.48;;;;;;;9.34;84.63;100860.41;5568454;31;35446;-56
2022/11/15 06:02:39;;;;;;;23.40;16.83;;;;;;;9.17;84.18;100861.41;5581020;32;34534;-55
2022/11/15 06:06:00;;;;;;;22.27;17.55;;;;;;;9.16;91.74;100851.75;5578236;32;34543;-56
2022/11/15 06:09:21;;;;;;;21.95;17.20;;;;;;;9.40;98.67;100849.47;5571766;32;33191;-55
2022/11/15 06:12:42;;;;;;;21.98;17.37;;;;;;;9.65;100.00;100839.94;5565004;32;34557;-56
2022/11/15 06:16:02;;;;;;;24.42;18.17;;;;;;;9.69;95.64;100838.34;5562808;32;34249;-57
2022/11/15 06:19:23;;;;;;;25.05;19.33;;;;;;;9.61;85.76;100847.69;5561554;32;34656;-55
2022/11/15 06:22:43;;;;;;;26.70;18.58;;;;;;;9.39;85.88;100847.06;5566941;32;34504;-55
2022/11/15 06:26:04;;;;;;;26.45;18.92;;;;;;;9.32;94.07;100847.28;5553822;32;35348;-55
2022/11/15 06:29:25;;;;;;;26.23;19.40;;;;;;;9.73;99.16;100855.47;5568314;32;35422;-55
2022/11/15 06:32:46;;;;;;;25.50;19.75;;;;;;;9.49;84.12;100846.28;5566914;32;34679;-55
2022/11/15 06:36:09;;;;;;;25.37;19.87;;;;;;;9.38;84.12;100851.59;5568864;32;35413;-55
2022/11/15 06:39:37;;;;;;;26.62;19.42;;;;;;;9.37;84.34;100843.81;5566010;32;34114;-55
2022/11/15 06:42:59;;;;;;;28.10;20.05;;;;;;;9.45;84.69;100855.91;5567114;32;34438;-55
2022/11/15 06:46:19;;;;;;;29.70;20.98;;;;;;;9.57;96.06;100853.81;5565864;32;35356;-57
2022/11/15 06:49:39;;;;;;;26.52;19.42;;;;;;;9.65;85.35;100859.47;5567448;32;34487;-55
2022/11/15 06:53:02;;;;;;;25.15;20.83;;;;;;;9.43;94.24;100853.50;5567801;32;35410;-56
2022/11/15 06:56:22;;;;;;;27.87;20.62;;;;;;;9.46;86.35;100846.81;5566982;32;34588;-55
2022/11/15 06:59:43;;;;;;;30.73;21.50;;;;;;;9.38;85.64;100848.94;5566929;32;35366;-55
2022/11/15 07:03:04;;;;;;;26.12;20.88;;;;;;;9.39;85.66;100844.38;5564869;32;34544;-56
2022/11/15 07:06:25;;;;;;;27.23;20.73;;;;;;;9.48;93.01;100860.75;5561108;32;35412;-56
2022/11/15 07:09:45;;;;;;;27.90;20.83;;;;;;;9.50;89.14;100851.38;5565488;32;34477;-56
2022/11/15 07:13:06;;;;;;;34.90;22.05;;;;;;;9.36;87.56;100842.22;5568032;32;34552;-55
2022/11/15 07:16:26;;;;;;;29.48;22.17;;;;;;;9.43;90.06;100850.81;5567939;32;34445;-55
2022/11/15 07:19:47;;;;;;;28.67;22.17;;;;;;;9.44;86.27;100843.59;5566221;32;35431;-56
2022/11/15 07:23:07;;;;;;;29.08;21.05;;;;;;;9.76;100.00;100838.91;5567228;32;34206;-56
2022/11/15 07:26:28;;;;;;;27.52;21.35;;;;;;;9.83;97.99;100830.59;5567904;32;34478;-55
2022/11/15 07:29:49;;;;;;;26.83;21.40;;;;;;;10.04;99.29;100823.44;5566597;32;34496;-55
2022/11/15 07:33:09;;;;;;;32.55;23.02;;;;;;;9.95;86.14;100833.87;5567567;32;34164;-55
2022/11/15 07:36:30;;;;;;;31.55;22.25;;;;;;;9.69;85.72;100834.88;5567036;32;34533;-56
2022/11/15 07:39:51;;;;;;;29.90;21.80;;;;;;;9.67;84.75;100836.97;5567177;32;34497;-55
2022/11/15 07:43:11;;;;;;;30.37;23.25;;;;;;;9.56;86.63;100836.16;5563568;32;34578;-55
2022/11/15 07:46:32;;;;;;;31.70;21.75;;;;;;;9.84;96.64;100826.87;5566200;32;34520;-56
2022/11/15 07:49:52;;;;;;;30.95;22.27;;;;;;;10.12;95.05;100830.94;5564936;32;34567;-55
2022/11/15 07:53:13;;;;;;;29.60;22.77;;;;;;;10.03;95.33;100825.31;5567888;32;35362;-55
2022/11/15 07:56:34;;;;;;;30.55;21.87;;;;;;;10.24;95.37;100842.22;5564750;32;34570;-55
2022/11/15 07:59:54;;;;;;;34.83;22.73;;;;;;;9.92;85.10;100846.97;5565653;32;34460;-56
2022/11/15 08:03:16;;;;;;;29.35;22.08;;;;;;;9.92;83.40;100830.91;5566429;32;34513;-56
2022/11/15 08:06:37;;;;;;;28.83;22.40;;;;;;;9.85;96.36;100826.59;5567572;32;35403;-56
2022/11/15 08:09:58;;;;;;;29.98;23.17;;;;;;;10.14;98.09;100822.66;5561427;32;35374;-56
2022/11/15 08:13:19;;;;;;;29.60;23.40;;;;;;;10.18;90.02;100824.53;5564845;32;35116;-55
2022/11/15 08:16:40;;;;;;;30.80;22.73;;;;;;;10.34;96.50;100817.34;5567298;32;34542;-56
2022/11/15 08:20:00;;;;;;;31.98;23.40;;;;;;;10.22;87.38;100811.41;5566917;32;34289;-57
2022/11/15 08:23:20;;;;;;;31.50;23.00;;;;;;;10.25;88.35;100809.00;5551249;32;35395;-56
2022/11/15 08:26:42;;;;;;;28.73;21.83;;;;;;;10.10;88.21;100795.59;5550455;32;34557;-55
2022/11/15 08:30:03;;;;;;;30.48;22.40;;;;;;;9.87;91.77;100800.38;5559766;32;35345;-55
2022/11/15 08:33:24;;;;;;;32.05;22.92;;;;;;;10.35;100.00;100794.81;5568232;32;34495;-55
2022/11/15 08:36:44;;;;;;;30.50;23.45;;;;;;;10.15;94.18;100808.97;5567380;32;34500;-55
2022/11/15 08:40:06;;;;;;;28.95;22.25;;;;;;;10.18;94.07;100802.28;5548551;32;34443;-56
2022/11/15 08:43:27;;;;;;;32.85;24.45;;;;;;;10.18;100.00;100803.09;5567610;32;34576;-56
2022/11/15 08:46:47;;;;;;;31.95;23.50;;;;;;;9.97;91.20;100796.13;5567539;32;35430;-56
2022/11/15 08:50:08;;;;;;;32.38;22.42;;;;;;;10.01;94.71;100784.59;5568098;32;34563;-56
2022/11/15 08:53:31;;;;;;;32.22;23.85;;;;;;;10.26;90.44;100777.66;5567681;32;35401;-55
2022/11/15 08:56:52;;;;;;;30.88;23.58;;;;;;;10.19;100.00;100771.75;5565276;32;34527;-56
2022/11/15 09:00:13;;;;;;;34.30;24.52;;;;;;;10.24;100.00;100780.59;5563733;32;34474;-55
2022/11/15 09:03:34;;;;;;;33.65;23.85;;;;;;;10.47;97.06;100781.97;5567491;32;35414;-56
2022/11/15 09:06:54;;;;;;;32.97;24.08;;;;;;;10.30;90.94;100774.19;5567885;32;34596;-55
2022/11/15 09:10:15;;;;;;;33.55;25.25;;;;;;;10.46;94.92;100766.13;5567237;32;35143;-55
2022/11/15 09:13:37;;;;;;;32.10;24.25;;;;;;;10.45;97.81;100765.34;5557405;32;35116;-56
2022/11/15 09:16:58;;;;;;;30.77;23.55;;;;;;;10.40;92.24;100754.63;5567386;32;34485;-55
2022/11/15 09:20:18;;;;;;;33.65;24.33;;;;;;;10.59;97.15;100760.22;5565581;32;34522;-56
2022/11/15 09:23:39;;;;;;;31.30;24.23;;;;;;;10.75;100.00;100756.44;5563271;32;35325;-55
2022/11/15 09:27:00;;;;;;;34.13;25.50;;;;;;;10.50;90.33;100751.94;5547252;32;34489;-55
2022/11/15 09:30:22;;;;;;;31.95;24.05;;;;;;;10.38;90.17;100755.97;5547230;32;34533;-56
2022/11/15 09:33:45;;;;;;;33.47;24.33;;;;;;;10.38;93.27;100747.94;5559743;32;35419;-55
2022/11/15 09:37:06;;;;;;;38.10;26.60;;;;;;;10.56;98.50;100758.06;5567256;32;34505;-55
2022/11/15 09:40:27;;;;;;;30.52;23.55;;;;;;;10.21;95.86;100746.28;5564581;32;34451;-56
2022/11/15 09:44:06;;;;;;;35.20;25.75;;;;;;;10.29;100.00;100742.28;5564298;32;34543;-55
2022/11/15 09:47:52;;;;;;;34.08;24.73;;;;;;;10.50;99.13;100749.25;5568058;32;35391;-57
2022/11/15 09:50:59;;;;;;;36.42;27.30;;;;;;;10.56;100.00;100750.88;5568530;32;33613;-55
2022/11/15 09:54:24;;;;;;;34.58;25.10;;;;;;;10.60;90.89;100742.28;5569236;32;34282;-56
2022/11/15 09:57:49;;;;;;;38.00;28.52;;;;;;;10.48;100.00;100745.22;5568808;32;33829;-56
2022/11/15 10:00:53;;;;;;;32.22;24.48;;;;;;;10.47;90.82;100740.97;5563828;32;31987;-57
2022/11/15 10:03:59;;;;;;;37.38;28.27;;;;;;;10.45;97.86;100733.16;5566006;32;33561;-55
2022/11/15 10:07:36;;;;;;;34.85;27.42;;;;;;;10.60;94.68;100729.69;5567265;32;34409;-57
2022/11/15 10:10:46;;;;;;;37.10;25.58;;;;;;;10.37;91.71;100727.56;5565426;32;33440;-55
2022/11/15 10:13:51;;;;;;;39.25;27.73;;;;;;;10.40;99.65;100722.47;5567607;32;33591;-56
2022/11/15 10:17:27;;;;;;;33.15;25.58;;;;;;;10.31;88.70;100714.16;5569809;32;34244;-55
2022/11/15 10:20:36;;;;;;;34.85;25.33;;;;;;;10.42;98.27;100708.78;5539348;32;34326;-55
2022/11/15 10:23:39;;;;;;;37.78;28.67;;;;;;;10.62;96.67;100695.34;5564583;32;33679;-55
2022/11/15 10:26:47;;;;;;;37.70;27.02;;;;;;;10.33;88.59;100695.13;5565135;32;33713;-55
2022/11/15 10:29:50;;;;;;;39.63;29.77;;;;;;;10.34;99.35;100700.22;5562703;32;33023;-57
2022/11/15 10:32:52;;;;;;;35.63;26.73;;;;;;;10.32;88.12;100698.88;5560568;32;35177;-55
2022/11/15 10:36:24;;;;;;;37.83;28.77;;;;;;;10.31;95.09;100691.94;5562614;32;32005;-57
2022/11/15 10:39:27;;;;;;;35.97;29.15;;;;;;;10.43;96.12;100684.41;5560308;32;33622;-56
2022/11/15 10:42:30;;;;;;;38.05;28.05;;;;;;;10.39;89.80;100677.16;5567283;32;33743;-56
2022/11/15 10:45:33;;;;;;;36.08;27.02;;;;;;;10.43;90.61;100675.53;5563923;32;33472;-56
2022/11/15 10:48:36;;;;;;;35.15;27.65;;;;;;;10.40;97.49;100674.22;5561218;32;33685;-55
2022/11/15 10:51:54;;;;;;;42.65;29.95;;;;;;;10.39;96.98;100669.94;5562735;32;33536;-55
2022/11/15 10:55:06;;;;;;;36.20;28.80;;;;;;;10.58;100.00;100670.16;5565545;32;33746;-55
2022/11/15 10:58:30;;;;;;;33.58;26.58;;;;;;;10.63;91.81;100662.09;5565719;32;34404;-56
2022/11/15 11:01:46;;;;;;;38.20;28.17;;;;;;;10.53;98.43;100652.22;5560739;32;33897;-56
2022/11/15 11:04:50;;;;;;;37.55;27.20;;;;;;;10.44;88.26;100650.37;5564299;32;34298;-56
2022/11/15 11:08:05;;;;;;;32.88;25.33;;;;;;;10.66;94.26;100653.53;5562108;32;33692;-56
2022/11/15 11:11:08;;;;;;;31.70;24.25;;;;;;;10.75;96.32;100640.31;5562246;32;34030;-56
2022/11/15 11:14:17;;;;;;;31.70;24.98;;;;;;;10.69;92.23;100636.84;5563012;32;33707;-57
2022/11/15 11:17:56;;;;;;;31.80;24.10;;;;;;;10.88;94.10;100630.88;5561587;32;34268;-55
2022/11/15 11:21:07;;;;;;;34.97;26.12;;;;;;;10.63;99.72;100635.28;5564174;32;33971;-56
2022/11/15 11:24:33;;;;;;;34.22;26.42;;;;;;;10.52;88.90;100628.34;5566843;32;34466;-55
2022/11/15 11:28:09;;;;;;;37.15;27.77;;;;;;;10.43;91.18;100619.25;5561329;32;33601;-56
2022/11/15 11:31:32;;;;;;;33.63;26.35;;;;;;;10.32;88.17;100623.84;5562471;32;33748;-56
2022/11/15 11:35:14;;;;;;;30.27;24.30;;;;;;;10.47;99.31;100615.78;5568100;32;33627;-56
2022/11/15 11:38:32;;;;;;;34.58;26.75;;;;;;;10.63;99.09;100613.03;5501871;32;33814;-55
2022/11/15 11:42:06;;;;;;;34.08;25.75;;;;;;;10.56;91.37;100606.09;5503500;32;33531;-56
2022/11/15 11:45:33;;;;;;;34.80;26.58;;;;;;;10.40;87.58;100623.31;5553909;32;33632;-57
2022/11/15 11:48:44;;;;;;;31.23;24.55;;;;;;;10.51;97.28;100602.63;5566135;32;33918;-56
2022/11/15 11:52:07;;;;;;;35.63;27.20;;;;;;;10.55;89.54;100596.44;5564721;32;33878;-56
2022/11/15 11:55:28;;;;;;;34.55;25.98;;;;;;;10.27;88.01;100594.41;5566348;32;33395;-56
2022/11/15 11:58:44;;;;;;;34.67;26.50;;;;;;;10.31;99.95;100598.16;5557848;32;33897;-56
2022/11/15 12:01:47;;;;;;;36.55;27.08;;;;;;;10.18;89.28;100596.00;5565119;32;33679;-57
2022/11/15 12:04:52;;;;;;;35.08;27.58;;;;;;;10.16;95.43;100585.53;5547365;32;33725;-56
2022/11/15 12:08:03;;;;;;;36.72;28.52;;;;;;;10.23;93.58;100582.56;5563228;32;34323;-56
2022/11/15 12:11:15;;;;;;;35.85;27.25;;;;;;;10.21;87.54;100582.06;5553358;32;34408;-55
2022/11/15 12:14:59;;;;;;;36.58;27.77;;;;;;;10.23;86.79;100570.00;5557500;32;34259;-56
2022/11/15 12:18:01;;;;;;;36.15;28.38;;;;;;;10.08;95.60;100560.13;5555530;32;33506;-55
2022/11/15 12:21:41;;;;;;;39.70;31.45;;;;;;;10.24;99.19;100563.56;5559804;32;34349;-56
2022/11/15 12:25:12;;;;;;;40.15;29.92;;;;;;;10.14;90.89;100552.09;5560598;32;34457;-56
2022/11/15 12:28:32;;;;;;;41.35;30.40;;;;;;;10.09;92.45;100545.66;5554643;32;33106;-56
2022/11/15 12:31:34;;;;;;;43.47;32.35;;;;;;;10.18;93.68;100553.16;5557223;32;33667;-56
2022/11/15 12:34:49;;;;;;;37.42;29.80;;;;;;;10.20;89.62;100549.13;5567828;32;34341;-55
2022/11/15 12:37:55;;;;;;;40.80;32.00;;;;;;;10.42;100.00;100543.41;5566770;32;34036;-56
2022/11/15 12:41:14;;;;;;;;;;;;;;;10.42;97.53;100534.59;5567462;32;34458;-56
2022/11/15 12:44:31;;;;;;;44.25;33.05;;;;;;;10.38;90.25;100538.91;5563795;32;34595;-56
2022/11/15 12:47:34;;;;;;;44.58;31.50;;;;;;;10.39;94.78;100530.56;5561517;32;34521;-56
2022/11/15 12:50:58;;;;;;;44.97;33.95;;;;;;;10.34;96.34;100519.88;5563363;32;33651;-55
2022/11/15 12:54:21;;;;;;;44.88;33.60;;;;;;;10.24;96.76;100518.03;5556551;32;34366;-56
2022/11/15 12:57:33;;;;;;;42.05;31.90;;;;;;;10.28;92.91;100511.06;5558020;32;34475;-56
2022/11/15 13:00:38;;;;;;;43.92;33.25;;;;;;;10.32;100.00;100516.66;5563434;32;33993;-55
2022/11/15 13:04:08;;;;;;;49.67;36.67;;;;;;;10.11;97.12;100519.41;5565495;32;34325;-55
2022/11/15 13:07:39;;;;;;;54.13;34.88;;;;;;;10.19;93.82;100519.91;5554792;32;33137;-55
2022/11/15 13:10:41;;;;;;;41.78;31.90;;;;;;;10.22;100.00;100514.81;5566650;32;33634;-55
2022/11/15 13:13:44;;;;;;;50.90;40.92;;;;;;;10.39;100.00;100519.06;5567869;32;34488;-56
2022/11/15 13:16:47;;;;;;;42.38;32.15;;;;;;;10.40;100.00;100529.50;5566663;32;33859;-55
2022/11/15 13:20:06;;;;;;;43.20;30.92;;;;;;;10.35;95.17;100522.28;5567840;32;34223;-56
2022/11/15 13:23:14;;;;;;;43.53;32.05;;;;;;;10.49;100.00;100522.47;5568252;32;34965;-56
2022/11/15 13:26:16;;;;;;;40.58;31.70;;;;;;;10.34;99.96;100512.66;5564402;32;33645;-56
2022/11/15 13:29:20;;;;;;;43.47;31.75;;;;;;;10.30;93.92;100503.56;5561473;32;35481;-55
2022/11/15 13:32:22;;;;;;;40.10;31.17;;;;;;;10.31;94.38;100497.13;5561690;32;33854;-56
2022/11/15 13:35:27;;;;;;;38.08;29.05;;;;;;;10.27;99.22;100493.38;5570042;32;33615;-56
2022/11/15 13:38:32;;;;;;;41.45;29.30;;;;;;;10.42;95.83;100497.87;5560605;32;33585;-55
2022/11/15 13:41:46;;;;;;;38.60;29.70;;;;;;;10.35;90.46;100495.47;5567442;32;33697;-56
2022/11/15 13:44:57;;;;;;;39.38;28.30;;;;;;;10.59;98.60;100492.13;5557480;32;33424;-55
2022/11/15 13:48:03;;;;;;;39.80;30.10;;;;;;;10.67;94.03;100477.37;5569445;32;33758;-55
2022/11/15 13:51:32;;;;;;;35.95;26.12;;;;;;;10.57;93.25;100470.19;5568027;32;33480;-55
2022/11/15 13:54:52;;;;;;;41.65;29.12;;;;;;;10.42;98.47;100471.06;5567014;32;33616;-56
2022/11/15 13:58:00;;;;;;;42.70;30.88;;;;;;;10.54;96.23;100470.75;5562015;32;34336;-55
2022/11/15 14:01:04;;;;;;;39.88;28.62;;;;;;;10.47;95.30;100480.97;5562267;32;33610;-56
2022/11/15 14:04:13;;;;;;;43.50;29.20;;;;;;;10.54;98.12;100470.75;5569861;32;33833;-55
2022/11/15 14:07:20;;;;;;;40.50;31.33;;;;;;;10.53;93.98;100469.94;5569960;32;33317;-55
2022/11/15 14:10:25;;;;;;;38.15;28.02;;;;;;;10.38;97.36;100461.19;5568936;32;33595;-56
2022/11/15 14:13:30;;;;;;;39.65;28.80;;;;;;;10.55;96.59;100467.78;5569265;32;33797;-55
2022/11/15 14:16:36;;;;;;;36.72;26.92;;;;;;;10.56;89.14;100460.53;5569321;32;34365;-55
2022/11/15 14:19:39;;;;;;;37.13;28.73;;;;;;;10.33;97.89;100467.34;5569889;32;33981;-55
2022/11/15 14:22:51;;;;;;;38.40;27.77;;;;;;;10.28;90.82;100456.69;5567884;32;34254;-55
2022/11/15 14:25:58;;;;;;;37.08;27.92;;;;;;;10.17;95.37;100445.19;5569895;32;33636;-56
2022/11/15 14:29:32;;;;;;;32.75;24.58;;;;;;;10.01;90.49;100444.44;5569285;32;33746;-56
2022/11/15 14:32:42;;;;;;;34.17;25.23;;;;;;;10.14;94.98;100439.59;5566865;32;33633;-54
2022/11/15 14:35:45;;;;;;;36.38;27.33;;;;;;;10.11;92.41;100435.56;5568636;32;34420;-55
2022/11/15 14:38:47;;;;;;;35.17;26.70;;;;;;;10.14;91.28;100429.66;5568500;32;33747;-55
2022/11/15 14:41:49;;;;;;;38.45;26.65;;;;;;;9.99;94.96;100422.47;5566243;32;34377;-55
2022/11/15 14:44:52;;;;;;;36.95;26.52;;;;;;;9.96;90.75;100415.00;5558678;32;33802;-55
2022/11/15 14:47:54;;;;;;;34.90;25.27;;;;;;;9.96;94.51;100422.22;5569607;32;34216;-55
2022/11/15 14:50:56;;;;;;;34.38;25.37;;;;;;;9.85;90.66;100424.97;5569586;32;34288;-55
2022/11/15 14:53:58;;;;;;;35.53;25.20;;;;;;;9.88;91.69;100420.94;5569026;32;33713;-56
2022/11/15 14:57:00;;;;;;;36.08;27.35;;;;;;;9.86;90.97;100423.87;5569561;32;33733;-56
2022/11/15 15:00:04;;;;;;;38.40;27.35;;;;;;;9.80;91.18;100414.28;5554089;32;34481;-56
2022/11/15 15:03:13;;;;;;;37.85;26.65;;;;;;;9.82;92.03;100406.75;5566058;32;32212;-55
2022/11/15 15:06:15;;;;;;;37.13;27.60;;;;;;;9.88;91.75;100411.03;5569243;32;33658;-56
2022/11/15 15:09:19;;;;;;;37.65;27.42;;;;;;;9.93;98.84;100409.41;5568817;32;34274;-55
2022/11/15 15:12:23;;;;;;;35.58;27.30;;;;;;;9.85;92.93;100406.22;5569056;32;33467;-56
2022/11/15 15:15:31;;;;;;;33.92;25.33;;;;;;;9.97;93.24;100411.25;5569143;32;33786;-55
2022/11/15 15:18:34;;;;;;;37.10;25.00;;;;;;;9.96;89.56;100403.50;5569312;32;34417;-56
2022/11/15 15:21:37;;;;;;;37.55;28.00;;;;;;;10.00;91.20;100393.81;5568903;32;33767;-56
2022/11/15 15:24:39;;;;;;;33.63;26.30;;;;;;;10.00;97.88;100386.63;5564470;32;33756;-56
2022/11/15 15:27:42;;;;;;;38.80;30.40;;;;;;;9.95;92.62;100393.88;5568774;32;33750;-56
2022/11/15 15:30:44;;;;;;;43.15;33.53;;;;;;;10.03;89.26;100394.09;5565006;32;33723;-56
2022/11/15 15:33:46;;;;;;;43.08;32.55;;;;;;;9.93;96.14;100402.16;5562158;32;34487;-55
2022/11/15 15:36:48;;;;;;;39.33;29.45;;;;;;;9.88;95.41;100402.19;5567906;32;33628;-56
2022/11/15 15:39:56;;;;;;;36.33;28.38;;;;;;;9.83;90.49;100408.38;5568288;32;34321;-56
2022/11/15 15:42:58;;;;;;;37.35;26.48;;;;;;;9.82;94.20;100411.31;5567978;32;33645;-55
2022/11/15 15:46:00;;;;;;;37.38;29.05;;;;;;;9.93;94.90;100406.72;5567392;32;33818;-55
2022/11/15 15:49:03;;;;;;;43.70;34.45;;;;;;;9.85;91.09;100408.09;5566821;32;34418;-56
2022/11/15 15:52:05;;;;;;;34.85;26.77;;;;;;;9.76;92.28;100402.50;5568557;32;33901;-56
2022/11/15 15:55:08;;;;;;;37.05;27.37;;;;;;;9.82;94.58;100400.59;5568811;32;33410;-55
2022/11/15 15:58:10;;;;;;;38.22;29.20;;;;;;;9.91;99.03;100390.13;5569302;32;33859;-55
2022/11/15 16:01:15;;;;;;;40.00;28.00;;;;;;;9.88;92.80;100388.81;5566658;32;34038;-56
2022/11/15 16:04:17;;;;;;;47.50;33.28;;;;;;;9.87;92.54;100396.03;5549146;32;33597;-55
2022/11/15 16:07:25;;;;;;;42.47;31.20;;;;;;;9.87;90.74;100385.34;5550014;32;33629;-55
2022/11/15 16:10:30;;;;;;;39.17;29.15;;;;;;;9.92;93.35;100389.84;5549915;32;33792;-56
2022/11/15 16:13:32;;;;;;;42.90;29.25;;;;;;;9.84;94.09;100385.87;5567631;32;34395;-56
2022/11/15 16:16:36;;;;;;;41.13;29.85;;;;;;;9.81;90.78;100386.44;5567450;32;34378;-55
2022/11/15 16:19:38;;;;;;;45.90;30.75;;;;;;;9.87;92.78;100390.69;5569276;32;33950;-57
2022/11/15 16:22:40;;;;;;;41.53;29.17;;;;;;;9.93;96.90;100386.09;5567801;32;33663;-56
2022/11/15 16:25:47;;;;;;;42.50;30.62;;;;;;;9.91;94.91;100388.25;5565824;32;33664;-57
2022/11/15 16:28:50;;;;;;;44.03;30.65;;;;;;;9.85;90.58;100382.13;5565358;32;33903;-56
2022/11/15 16:31:52;;;;;;;44.63;31.25;;;;;;;9.89;96.01;100383.16;5569028;32;33815;-56
2022/11/15 16:34:55;;;;;;;43.17;30.00;;;;;;;9.77;96.17;100384.59;5568807;32;34416;-56
2022/11/15 16:37:58;;;;;;;42.50;30.10;;;;;;;9.85;96.19;100384.00;5567703;32;33689;-55
2022/11/15 16:41:00;;;;;;;49.92;31.23;;;;;;;9.89;96.18;100369.78;5568401;32;33729;-56
2022/11/15 16:44:02;;;;;;;43.83;32.38;;;;;;;9.89;93.01;100377.00;5567407;32;33954;-55
2022/11/15 16:47:04;;;;;;;78.78;59.90;;;;;;;9.86;99.38;100374.88;5567928;32;33683;-56
2022/11/15 16:50:38;;;;;;;50.08;35.90;;;;;;;9.86;95.05;100364.16;5563038;32;33681;-55
